メインページ
METAR-TAF:

METAR-TAF

空港 :

Kirsch Municipal Airport

Sturgis, ミシガン州, アメリカ合衆国

緯度: 41-48-46N, 経度: 085-26-21W, 海抜: 282m

現時点の気象観測

当レポートは15分前の18:55(UTC)に作成
西/南西の風 11kt、最大18ktの突風を伴う
気温 32°C
湿度 75%
気圧 1012 hPa
視程: 16.1km
高度2400ftの千切れ雲あり
高度2900ftの千切れ雲あり

METAR: KIRS 191855Z AUTO 24011G18KT 10SM BKN024 BKN029 32/27 A2988 RMK AO2 T03230266

時間: 15:10 (19:10 UTC)


TAF: 見つかりません

4,000以上の空港の気象観測と天気予報(METAR報とTAF報)

利用可能な観測所は地図上に黄色い丸と赤い丸で示す。

丸の上にカーソルを重ねると観測所名を参照できる。

次にクリックすると気象観測と天気予報を参照できる。

マップの切り替え:黒色「×」印の緑ボタンをクリックして拡大、「-」印の緑ボタンをクリックして縮小、緑色の三角印をクリックして隣りの地図に切り替え


METAR-TAF: